Airfield :
LOGIN :

Register | Disclaimer

   EN    FR    IT 

 










Legend :    VFR   Marginal VFR   IFR   Intensive IFR   Very Intensive IFR
Visi :
Ceiling :
>= 8 km
>= 3000ft
5 to 8 km
1000 to 3000 ft
1500m to 5 km
500 to 1000 ft
800 to 1500m
200 to 500 ft
< 800m
< 200 ft
Symbols :   Thunderstorms  Fog  Heavy snow  Heavy precipitations  Wind > 20 kt
SIGMETs :     Misc.  Thunderstorms  Icing  Turbulence  Mountain Waves  Volcanic Ashes







- Airport Elevation : 1768 ft


LEHC - Huesca Pirineos

CURRENT METAR :
  • 190130Z AUTO VRB01KT 0200 0100SE R30L/0350N R12R/0175N FZFG VV002 M01/M02 Q1015

EXPIRED METARs :
  • 190100Z AUTO VRB01KT 0350 0300SE R30L/0750N R12R/0250N FZFG VV002 M02/M02 Q1015
  • 190030Z AUTO 36002KT 0150 R30L/0550N R12R/0150N FZFG VV002 M02/M02 Q1015
  • 190000Z AUTO VRB01KT 0200 R30L/0600U R12R/0200N FZFG VV002 M02/M02 Q1015
  • 182330Z AUTO 32001KT 0200 0150SE R30L/0400N R12R/0175N FZFG VV001 M02/M02 Q1015
  • 182300Z AUTO 36002KT 0100 0050SE R30L/0250N R12R/0100N FZFG VV001 M03/M03 Q1015
  • 182230Z AUTO 00000KT 9999 0450SE BCFG NSC M02/M02 Q1015

TAF TAF LEHC
Valid from the 18 at 09:00 until the 19 at 09:00 UTC


180800Z 1809/1909 VRB04KT 0200 FG VV001 TX05/1813Z TNM02/1906Z
TEMPO 1809/1811 FZFG
TEMPO 1810/1819 2000 BR OVC004
PROB40
TEMPO 1812/1818 6000 NSW OVC006
TEMPO 1822/1909 FZFG
No reported NOTAMs for that airfield.



MET'MAP, your aeronautical weather chart ! - Copyright ORBIFLY December 2007 - Disclaimer

ORBIFLY MET'MAP TEAM :

Programming & Development : Alexandra Zaïnal
Concept & Development : Baudouin d'Aumeries
Co-Development & Prog : Marc-Olivier Méhu
Technical & hardware support : Manuel Goepfert

Contact : metmap@orbifly.com




SOURCES & CREDITS :

   NOAA